METAR Data
IDs: Format: Raw Decoded Include TAF

Data at: 1341 UTC 14 Dec 2019

METAR for:KIKV (Ankeny Rgnl, IA, US)
Text:KIKV 141335Z AUTO 32014KT 10SM BKN018 OVC025 M06/M09 A2993 RMK AO2
Temperature: -6.0°C ( 21°F)
Dewpoint: -9.0°C ( 16°F) [RH = 79%]
Pressure (altimeter):29.93 inches Hg (1013.6 mb)
Winds:from the NW (320 degrees) at 16 MPH (14 knots; 7.2 m/s)
Visibility:10 or more sm (16+ km)
Ceiling:1800 feet AGL
Clouds: broken clouds at 1800 feet AGL, overcast cloud deck at 2500 feet AGL
QC Flag:automated observation with no human augmentation